createdAt,value
2023-05-14T00:01:42.854Z,47.32
2023-05-14T00:04:17.028Z,47.29
2023-05-14T00:06:46.174Z,47.33
2023-05-14T00:09:21.685Z,47.21
2023-05-14T00:11:57.007Z,47.30
2023-05-14T00:14:33.185Z,47.33
2023-05-14T01:01:05.076Z,47.38
2023-05-14T01:03:33.418Z,47.37
2023-05-14T01:06:02.461Z,47.26
2023-05-14T01:08:32.946Z,47.36
2023-05-14T01:11:02.452Z,47.46
2023-05-14T01:13:31.845Z,47.47
2023-05-14T01:48:08.134Z,47.47
2023-05-14T01:50:36.110Z,47.53
2023-05-14T01:53:04.273Z,47.37
2023-05-14T01:55:32.410Z,47.32
2023-05-14T01:58:00.288Z,47.44
2023-05-14T02:47:17.040Z,47.46
2023-05-14T02:49:44.963Z,47.54
2023-05-14T02:52:12.887Z,47.49
2023-05-14T02:54:40.990Z,47.56
2023-05-14T02:57:08.863Z,47.59
2023-05-14T02:59:37.183Z,47.65
2023-05-14T03:48:50.506Z,47.56
2023-05-14T03:51:20.013Z,47.61
2023-05-14T03:53:47.943Z,47.52
2023-05-14T03:56:16.181Z,47.58
2023-05-14T03:58:44.724Z,47.62
2023-05-14T04:50:57.833Z,47.49
2023-05-14T04:53:25.806Z,47.55
2023-05-14T04:55:54.214Z,47.47
2023-05-14T04:58:23.667Z,47.61
2023-05-14T05:00:51.632Z,47.58
2023-05-14T05:03:19.697Z,47.54
2023-05-14T05:05:47.892Z,47.58
2023-05-14T05:08:17.536Z,47.56
2023-05-14T05:10:45.492Z,47.62
2023-05-14T05:13:13.529Z,47.79
2023-05-14T05:15:42.359Z,47.66
2023-05-14T05:18:10.365Z,47.68
2023-05-14T05:20:38.360Z,47.63
2023-05-14T05:23:06.648Z,47.57
2023-05-14T05:25:36.453Z,47.72
2023-05-14T05:28:04.619Z,47.73
2023-05-14T05:30:32.819Z,47.69
2023-05-14T05:33:01.240Z,47.68
2023-05-14T05:35:29.678Z,47.74
2023-05-14T05:38:01.315Z,47.68
2023-05-14T05:40:30.085Z,47.81
2023-05-14T05:42:59.598Z,47.66
2023-05-14T05:45:30.706Z,47.58
2023-05-14T05:47:59.479Z,47.62
2023-05-14T05:50:28.232Z,47.69
2023-05-14T05:52:56.489Z,47.69
2023-05-14T05:55:24.819Z,47.69
2023-05-14T05:57:52.934Z,47.70
2023-05-14T06:00:23.323Z,47.74
2023-05-14T06:02:53.786Z,47.57
2023-05-14T06:05:21.842Z,47.72
2023-05-14T06:07:49.894Z,47.66
2023-05-14T06:10:23.481Z,47.68
2023-05-14T06:12:52.266Z,47.61
2023-05-14T06:15:20.442Z,47.65
2023-05-14T06:17:50.152Z,47.70
2023-05-14T06:20:18.395Z,47.75
2023-05-14T06:22:47.241Z,47.69
2023-05-14T06:25:17.509Z,47.67
2023-05-14T06:27:45.658Z,47.63
2023-05-14T06:30:14.417Z,47.73
2023-05-14T06:32:42.695Z,47.70
2023-05-14T06:35:15.576Z,47.74
2023-05-14T06:37:43.725Z,47.70
2023-05-14T06:40:12.317Z,47.68
2023-05-14T06:42:47.858Z,47.63
2023-05-14T06:45:19.911Z,47.59
2023-05-14T06:47:48.452Z,47.74
2023-05-14T06:50:18.207Z,47.63
2023-05-14T06:52:47.088Z,47.73
2023-05-14T06:55:15.094Z,47.64
2023-05-14T06:57:43.455Z,47.74
2023-05-14T07:00:12.067Z,47.71
2023-05-14T07:02:40.085Z,47.63
2023-05-14T07:05:09.190Z,47.66
2023-05-14T07:07:41.488Z,47.67
2023-05-14T07:10:10.055Z,47.63
2023-05-14T07:12:38.734Z,47.63
2023-05-14T07:15:07.829Z,47.60
2023-05-14T07:17:36.238Z,47.65
2023-05-14T07:20:12.659Z,47.56
2023-05-14T07:22:42.384Z,47.56
2023-05-14T07:25:11.233Z,47.53
2023-05-14T07:27:39.593Z,47.54
2023-05-14T07:30:15.530Z,47.60
2023-05-14T07:32:50.051Z,47.43
2023-05-14T07:35:26.613Z,47.57
2023-05-14T07:38:03.286Z,47.58
2023-05-14T07:40:31.966Z,47.51
2023-05-14T07:43:06.181Z,47.62
2023-05-14T07:45:39.486Z,47.58
2023-05-14T07:48:12.459Z,47.59
2023-05-14T07:50:43.822Z,47.81
2023-05-14T07:53:14.054Z,47.56
2023-05-14T07:55:42.335Z,47.56
2023-05-14T07:58:22.153Z,47.62
2023-05-14T08:00:50.562Z,47.66
2023-05-14T08:03:19.246Z,47.48
2023-05-14T08:05:52.422Z,47.56
2023-05-14T08:08:22.797Z,47.74
2023-05-14T08:10:53.039Z,47.55
2023-05-14T08:13:24.951Z,47.58
2023-05-14T08:16:08.407Z,47.56
2023-05-14T08:18:37.676Z,47.48
2023-05-14T08:21:09.133Z,47.61
2023-05-14T08:23:55.746Z,47.50
2023-05-14T08:26:55.763Z,47.43
2023-05-14T08:41:25.149Z,47.56
2023-05-14T09:01:31.588Z,47.55
2023-05-14T09:04:10.281Z,47.50
2023-05-14T09:06:38.886Z,47.45
2023-05-14T09:09:09.113Z,47.53
2023-05-14T09:11:42.387Z,47.49
2023-05-14T09:14:11.719Z,47.50
2023-05-14T09:16:45.360Z,47.41
2023-05-14T09:19:13.970Z,47.37
2023-05-14T09:21:45.954Z,47.42
2023-05-14T09:24:19.944Z,47.36
2023-05-14T09:26:53.045Z,47.33
2023-05-14T09:29:30.110Z,47.35
2023-05-14T09:32:07.755Z,47.21
2023-05-14T09:34:44.393Z,47.17
2023-05-14T09:37:14.387Z,47.17
2023-05-14T09:39:45.709Z,47.23
2023-05-14T09:42:19.746Z,47.06
2023-05-14T09:44:54.694Z,47.20
2023-05-14T09:47:29.645Z,47.25
2023-05-14T09:49:58.451Z,47.33
2023-05-14T09:52:34.188Z,47.30
2023-05-14T09:55:02.354Z,47.16
2023-05-14T09:57:30.775Z,47.06
2023-05-14T10:00:03.955Z,47.00
2023-05-14T10:02:37.738Z,47.00
2023-05-14T10:05:10.707Z,46.93
2023-05-14T10:07:42.119Z,47.01
2023-05-14T10:10:14.921Z,46.93
2023-05-14T10:12:44.894Z,46.80
2023-05-14T10:15:15.083Z,46.96
2023-05-14T10:17:50.697Z,47.00
2023-05-14T10:20:19.130Z,47.06
2023-05-14T10:22:47.499Z,47.17
2023-05-14T10:25:18.150Z,47.11
2023-05-14T10:27:49.165Z,47.07
2023-05-14T10:30:35.360Z,47.15
2023-05-14T10:33:11.565Z,47.04
2023-05-14T10:36:07.200Z,47.16
2023-05-14T10:38:37.988Z,47.12
2023-05-14T10:41:24.120Z,47.07
2023-05-14T10:43:57.991Z,47.13
2023-05-14T10:46:31.501Z,47.33
2023-05-14T10:49:10.763Z,47.24
2023-05-14T10:51:41.906Z,47.04
2023-05-14T10:54:19.777Z,47.00
2023-05-14T10:56:54.244Z,46.88
2023-05-14T10:59:37.424Z,46.30
2023-05-14T11:02:06.979Z,46.71
2023-05-14T11:04:41.812Z,46.41
2023-05-14T11:07:20.408Z,46.63
2023-05-14T11:10:02.504Z,46.63
2023-05-14T11:12:36.832Z,46.53
2023-05-14T11:15:07.235Z,46.67
2023-05-14T11:17:35.577Z,46.61
2023-05-14T11:20:06.612Z,46.63
2023-05-14T11:22:34.948Z,46.54
2023-05-14T11:25:07.665Z,46.66
2023-05-14T11:27:39.069Z,46.64
2023-05-14T11:30:15.068Z,46.56
2023-05-14T11:32:49.032Z,46.69
2023-05-14T11:35:28.792Z,46.79
2023-05-14T11:38:09.503Z,46.63
2023-05-14T11:40:45.045Z,46.60
2023-05-14T11:43:20.180Z,46.59
2023-05-14T11:46:00.705Z,46.56
2023-05-14T11:48:37.908Z,46.45
2023-05-14T11:51:20.524Z,46.59
2023-05-14T11:53:52.503Z,46.54
2023-05-14T11:56:21.703Z,46.54
2023-05-14T11:59:01.801Z,46.54
2023-05-14T12:01:35.686Z,46.41
2023-05-14T12:04:28.379Z,46.64
2023-05-14T12:07:01.808Z,46.72
2023-05-14T12:09:30.551Z,46.74
2023-05-14T12:12:15.566Z,46.82
2023-05-14T12:15:33.022Z,46.82
2023-05-14T12:18:03.891Z,46.63
2023-05-14T12:20:32.514Z,46.65
2023-05-14T12:23:08.618Z,46.65
2023-05-14T12:25:41.494Z,46.76
2023-05-14T12:32:34.872Z,46.81
2023-05-14T12:35:48.792Z,46.81
2023-05-14T12:38:41.041Z,46.68
2023-05-14T12:41:12.325Z,46.68
2023-05-14T12:44:08.037Z,46.80
2023-05-14T12:46:40.666Z,46.90
2023-05-14T12:49:14.492Z,46.83
2023-05-14T12:51:52.641Z,46.83
2023-05-14T12:54:28.322Z,46.81
2023-05-14T12:56:58.650Z,46.71
2023-05-14T12:59:27.564Z,46.58
2023-05-14T13:01:55.958Z,46.66
2023-05-14T13:04:24.474Z,46.52
2023-05-14T13:06:55.085Z,46.40
2023-05-14T13:09:27.999Z,46.34
2023-05-14T13:11:56.337Z,46.35
2023-05-14T13:14:27.339Z,46.45
2023-05-14T13:16:55.714Z,46.44
2023-05-14T13:19:24.212Z,46.57
2023-05-14T13:21:56.709Z,46.48
2023-05-14T13:24:29.095Z,46.60
2023-05-14T13:26:57.657Z,46.47
2023-05-14T13:29:26.414Z,46.55
2023-05-14T13:31:57.281Z,46.57
2023-05-14T13:34:30.381Z,46.65
2023-05-14T13:36:58.554Z,46.62
2023-05-14T13:39:28.291Z,46.64
2023-05-14T13:42:00.403Z,46.61
2023-05-14T13:44:31.885Z,46.55
2023-05-14T13:47:00.814Z,46.53
2023-05-14T13:49:38.813Z,46.60
2023-05-14T13:52:10.891Z,46.64
2023-05-14T13:54:47.383Z,46.68
2023-05-14T13:57:20.324Z,46.73
2023-05-14T13:59:56.177Z,46.77
2023-05-14T14:02:39.814Z,46.75
2023-05-14T14:05:09.100Z,46.82
2023-05-14T14:07:39.416Z,46.83
2023-05-14T14:10:08.483Z,46.88
2023-05-14T14:12:38.113Z,46.87
2023-05-14T14:15:16.266Z,46.92
2023-05-14T14:17:44.710Z,47.04
2023-05-14T14:20:13.538Z,46.95
2023-05-14T14:22:42.113Z,46.87
2023-05-14T14:25:15.799Z,46.82
2023-05-14T14:27:47.369Z,46.78
2023-05-14T14:30:19.759Z,46.84
2023-05-14T14:33:02.144Z,46.78
2023-05-14T14:35:31.414Z,46.86
2023-05-14T14:38:07.478Z,46.88
2023-05-14T14:41:32.296Z,46.81
2023-05-14T14:44:07.676Z,46.95
2023-05-14T14:46:36.127Z,46.83
2023-05-14T14:52:17.294Z,46.70
2023-05-14T14:54:45.691Z,46.79
2023-05-14T14:57:14.569Z,46.79
2023-05-14T14:59:47.169Z,46.83
2023-05-14T15:02:20.499Z,46.81
2023-05-14T15:04:54.301Z,46.84
2023-05-14T15:07:40.907Z,46.92
2023-05-14T15:10:29.232Z,46.86
2023-05-14T15:13:10.300Z,46.89
2023-05-14T15:15:49.164Z,46.85
2023-05-14T15:18:20.919Z,46.82
2023-05-14T15:20:49.335Z,46.89
2023-05-14T15:23:19.706Z,46.84
2023-05-14T15:25:52.350Z,46.89
2023-05-14T15:28:20.753Z,46.86
2023-05-14T15:30:50.732Z,46.95
2023-05-14T15:33:23.954Z,46.97
2023-05-14T15:35:56.643Z,46.84
2023-05-14T15:41:20.678Z,46.91
2023-05-14T15:43:58.562Z,46.87
2023-05-14T15:51:41.387Z,46.88
2023-05-14T15:54:21.033Z,46.95
2023-05-14T15:56:58.879Z,46.92
2023-05-14T15:59:28.948Z,46.84
2023-05-14T16:02:00.477Z,47.04
2023-05-14T16:05:02.235Z,46.89
2023-05-14T16:07:34.927Z,47.06
2023-05-14T16:10:08.910Z,46.99
2023-05-14T16:12:38.995Z,46.98
2023-05-14T16:15:08.502Z,46.99
2023-05-14T16:17:44.562Z,47.03
2023-05-14T16:20:16.805Z,46.95
2023-05-14T16:22:47.186Z,47.01
2023-05-14T16:25:18.948Z,46.92
2023-05-14T16:27:49.449Z,46.98
2023-05-14T16:30:23.698Z,47.00
2023-05-14T16:32:58.560Z,46.99
2023-05-14T16:35:33.018Z,46.84
2023-05-14T16:38:07.212Z,46.92
2023-05-14T16:40:39.497Z,46.88
2023-05-14T16:43:10.480Z,46.95
2023-05-14T16:46:26.555Z,46.96
2023-05-14T16:48:59.173Z,46.92
2023-05-14T16:51:30.822Z,46.79
2023-05-14T16:54:03.765Z,46.91
2023-05-14T16:56:36.986Z,46.87
2023-05-14T16:59:06.989Z,46.92
2023-05-14T17:01:43.700Z,46.88
2023-05-14T17:04:27.501Z,46.72
2023-05-14T17:11:07.291Z,46.81
2023-05-14T18:20:24.737Z,47.24
2023-05-14T18:22:53.507Z,47.15
2023-05-14T18:25:26.234Z,47.30
2023-05-14T18:28:04.409Z,47.16
2023-05-14T18:38:34.516Z,47.29
2023-05-14T18:41:03.908Z,47.36
2023-05-14T18:43:36.119Z,47.40
2023-05-14T18:46:07.940Z,47.27
2023-05-14T18:48:54.819Z,47.38
2023-05-14T18:51:36.180Z,47.25
2023-05-14T18:57:23.078Z,47.39
2023-05-14T19:00:06.014Z,47.33
2023-05-14T19:02:44.862Z,47.37
2023-05-14T19:05:49.367Z,47.34
2023-05-14T19:21:12.724Z,47.34
2023-05-14T19:24:45.010Z,47.38
2023-05-14T19:27:34.227Z,47.37
2023-05-14T19:33:32.627Z,47.31
2023-05-14T19:36:10.515Z,47.32
2023-05-14T19:38:43.644Z,47.32
2023-05-14T19:41:26.936Z,47.29
2023-05-14T19:44:14.231Z,47.24
2023-05-14T19:46:51.826Z,47.30
2023-05-14T19:49:46.081Z,47.31
2023-05-14T19:52:55.239Z,47.46
2023-05-14T19:55:42.185Z,47.45
2023-05-14T19:58:14.384Z,47.33
2023-05-14T20:23:02.320Z,47.50
2023-05-14T20:25:51.384Z,47.59
2023-05-14T20:28:47.263Z,47.49
2023-05-14T20:31:44.202Z,47.48
2023-05-14T20:34:24.036Z,47.51
2023-05-14T20:36:57.342Z,47.50
2023-05-14T20:39:48.818Z,47.51
2023-05-14T20:42:46.724Z,47.64
2023-05-14T20:45:27.203Z,47.55
2023-05-14T20:47:57.775Z,47.58
2023-05-14T20:50:36.453Z,47.52
2023-05-14T20:53:10.869Z,47.52
2023-05-14T20:55:56.921Z,47.56
2023-05-14T20:58:57.020Z,47.58
2023-05-14T21:02:05.034Z,47.54
2023-05-14T22:09:11.907Z,47.81
2023-05-14T22:11:41.983Z,47.82
2023-05-14T22:14:11.188Z,47.75
2023-05-14T22:16:54.244Z,47.61
2023-05-14T22:19:45.214Z,47.74
2023-05-14T22:22:18.178Z,47.84
2023-05-14T22:24:57.865Z,47.83
2023-05-14T22:27:40.755Z,47.82
2023-05-14T22:34:22.524Z,47.94
2023-05-14T22:46:59.018Z,47.81
2023-05-14T22:49:43.769Z,47.79
2023-05-14T22:52:29.173Z,47.89
2023-05-14T22:54:57.474Z,47.94
2023-05-14T22:57:27.272Z,47.94
2023-05-14T22:59:55.492Z,47.86
2023-05-14T23:02:23.817Z,47.89
2023-05-14T23:04:51.892Z,47.76
2023-05-14T23:07:20.069Z,47.81
2023-05-14T23:09:48.410Z,47.86
2023-05-14T23:12:16.638Z,47.82
2023-05-14T23:14:46.419Z,47.81
2023-05-14T23:17:14.801Z,47.83
2023-05-14T23:19:43.184Z,47.93
2023-05-14T23:22:11.555Z,47.93
2023-05-14T23:24:40.012Z,48.01
2023-05-14T23:27:08.356Z,47.94
2023-05-14T23:29:36.558Z,47.93
2023-05-14T23:32:06.431Z,47.88
2023-05-14T23:34:34.778Z,47.77
2023-05-14T23:37:02.792Z,47.81
2023-05-14T23:39:31.653Z,47.83
2023-05-14T23:42:00.742Z,47.84
2023-05-14T23:44:29.433Z,47.89
2023-05-14T23:46:58.070Z,48.00
2023-05-14T23:49:28.265Z,47.96
2023-05-14T23:51:57.113Z,47.97
2023-05-14T23:54:26.155Z,47.94
2023-05-14T23:56:54.597Z,48.02
2023-05-14T23:59:23.215Z,47.85
